Time;durP1;ratioP1;P1;durP2;ratioP2;P2;SDS_P1;SDS_P2;PMS_P1;PMS_P2;Temp;Humidity;BMP_temperature;BMP_pressure;BME280_temperature;BME280_humidity;BME280_pressure;Samples;Min_cycle;Max_cycle;Signal;HPM_P1;HPM_P2
2021/07/29 00:02:06;;;;;;;15.85;13.30;;;;;;;20.50;71.38;98940.59;5091759;28;20115;-50
2021/07/29 00:04:32;;;;;;;15.75;14.15;;;;;;;20.40;71.68;98916.53;5092107;28;20086;-48
2021/07/29 00:06:57;;;;;;;16.90;13.80;;;;;;;20.54;71.54;98938.28;5092095;28;20104;-52
2021/07/29 00:09:23;;;;;;;17.40;13.85;;;;;;;20.54;71.72;98936.41;5091321;28;20101;-50
2021/07/29 00:11:48;;;;;;;16.10;14.38;;;;;;;20.54;71.83;98933.69;5091564;28;20047;-49
2021/07/29 00:14:13;;;;;;;18.48;15.52;;;;;;;20.54;72.12;98932.84;5091851;28;20515;-46
2021/07/29 00:16:44;;;;;;;17.15;15.35;;;;;;;20.53;72.16;98931.19;5073432;28;20051;-51
2021/07/29 00:19:10;;;;;;;15.55;13.85;;;;;;;20.54;72.09;98933.69;5091543;28;20032;-48
2021/07/29 00:21:38;;;;;;;16.80;14.73;;;;;;;20.54;72.44;98924.69;5091404;28;20054;-51
2021/07/29 00:24:05;;;;;;;17.00;15.25;;;;;;;20.54;72.33;98911.94;5091425;28;20034;-50
2021/07/29 00:26:31;;;;;;;16.15;14.57;;;;;;;20.56;73.08;98922.59;5091413;28;20583;-48
2021/07/29 00:28:57;;;;;;;16.40;13.90;;;;;;;20.54;73.00;98909.22;5091390;28;20024;-53
2021/07/29 00:31:35;;;;;;;17.13;15.32;;;;;;;20.64;73.17;98911.50;5072705;28;20409;-53
2021/07/29 00:34:03;;;;;;;15.48;13.93;;;;;;;20.53;74.21;98912.16;5091550;28;20046;-49
2021/07/29 00:36:28;;;;;;;17.23;14.80;;;;;;;20.47;74.73;98909.22;5091160;28;20074;-51
2021/07/29 00:38:59;;;;;;;17.00;14.95;;;;;;;20.42;75.06;98900.84;5090904;28;20120;-49
2021/07/29 00:41:26;;;;;;;16.67;14.60;;;;;;;20.44;75.36;98906.91;5090729;28;20103;-51
2021/07/29 00:44:01;;;;;;;16.23;14.57;;;;;;;20.52;75.45;98914.03;5091535;28;20031;-51
2021/07/29 00:46:28;;;;;;;15.55;13.70;;;;;;;20.27;75.49;98882.06;5091235;28;20087;-53
2021/07/29 00:48:55;;;;;;;15.13;13.52;;;;;;;20.36;75.93;98901.72;5090928;28;20459;-47
2021/07/29 00:51:21;;;;;;;13.75;12.35;;;;;;;20.31;76.09;98894.19;5090144;28;20032;-52
2021/07/29 00:53:47;;;;;;;14.25;12.75;;;;;;;20.31;76.47;98894.19;5091202;28;20491;-49
2021/07/29 00:56:12;;;;;;;17.27;14.18;;;;;;;20.32;76.46;98903.19;5091260;28;20111;-50
2021/07/29 00:58:38;;;;;;;14.52;13.10;;;;;;;20.23;76.30;98878.09;5090663;28;20450;-51
2021/07/29 01:01:03;;;;;;;15.15;13.55;;;;;;;20.30;76.46;98888.97;5090669;28;20024;-49
2021/07/29 01:03:29;;;;;;;15.95;14.30;;;;;;;20.32;76.41;98895.03;5090993;28;20587;-47
2021/07/29 01:05:54;;;;;;;16.00;14.02;;;;;;;20.30;76.28;98895.22;5090550;28;20460;-49
2021/07/29 01:08:20;;;;;;;15.52;13.60;;;;;;;20.30;76.74;98886.25;5090681;28;20032;-46
2021/07/29 01:10:45;;;;;;;15.25;13.75;;;;;;;20.30;76.90;98894.41;5090634;28;20032;-59
2021/07/29 01:13:11;;;;;;;17.98;14.68;;;;;;;20.16;76.52;98863.69;5090653;28;20032;-45
2021/07/29 01:15:36;;;;;;;18.27;14.73;;;;;;;20.31;77.15;98883.31;5090565;28;20468;-48
2021/07/29 01:18:02;;;;;;;17.45;15.38;;;;;;;20.33;76.77;98885.81;5090351;28;20090;-50
2021/07/29 01:20:29;;;;;;;16.45;14.73;;;;;;;20.35;76.92;98883.72;5090444;28;20039;-52
2021/07/29 01:22:55;;;;;;;17.70;14.88;;;;;;;20.36;77.15;98879.97;5090868;28;20024;-49
2021/07/29 01:25:20;;;;;;;18.58;15.57;;;;;;;20.35;77.25;98875.56;5090753;28;20028;-49
2021/07/29 01:27:46;;;;;;;19.35;14.93;;;;;;;20.37;77.06;98876.19;5090778;28;20490;-46
2021/07/29 01:30:12;;;;;;;17.23;14.95;;;;;;;20.35;77.01;98870.97;5091103;28;20028;-53
2021/07/29 01:32:39;;;;;;;17.98;15.13;;;;;;;20.35;77.00;98878.28;5090726;28;20036;-51
2021/07/29 01:35:08;;;;;;;17.15;15.18;;;;;;;20.22;77.09;98857.41;5090673;28;20031;-50
2021/07/29 01:37:34;;;;;;;17.67;15.45;;;;;;;20.35;77.01;98875.56;5091234;28;20036;-52
2021/07/29 01:39:59;;;;;;;18.17;15.32;;;;;;;20.38;77.18;98872.44;5090605;28;20028;-48
2021/07/29 01:42:25;;;;;;;18.92;16.05;;;;;;;20.40;77.17;98873.06;5072293;28;20032;-52
2021/07/29 01:44:50;;;;;;;21.33;15.93;;;;;;;20.41;76.89;98865.75;5090506;28;20028;-49
2021/07/29 01:47:16;;;;;;;17.55;15.65;;;;;;;20.32;76.81;98848.81;5090491;28;20032;-54
2021/07/29 01:49:41;;;;;;;20.58;15.80;;;;;;;20.44;77.01;98871.56;5090431;28;20204;-51
2021/07/29 01:52:07;;;;;;;23.08;17.02;;;;;;;20.42;76.91;98856.53;5090754;28;20089;-51
2021/07/29 01:54:32;;;;;;;18.42;15.98;;;;;;;20.46;76.58;98863.22;5090296;28;20123;-49
2021/07/29 01:56:57;;;;;;;18.63;16.30;;;;;;;20.48;76.86;98872.81;5089865;28;20040;-51
2021/07/29 01:59:23;;;;;;;21.50;16.67;;;;;;;20.48;76.86;98866.56;5090739;28;20039;-51
2021/07/29 02:01:49;;;;;;;19.02;16.02;;;;;;;20.47;76.86;98870.31;5091888;28;20044;-56
2021/07/29 02:04:14;;;;;;;19.85;16.50;;;;;;;20.47;76.94;98867.63;5094456;28;20081;-52
2021/07/29 02:06:40;;;;;;;20.67;15.05;;;;;;;20.48;76.79;98861.94;5094124;28;20039;-51
2021/07/29 02:09:05;;;;;;;18.67;16.08;;;;;;;20.49;76.85;98871.78;5094744;28;20103;-48
2021/07/29 02:11:34;;;;;;;19.73;15.45;;;;;;;20.46;76.91;98874.91;5094762;28;20059;-51
2021/07/29 02:14:00;;;;;;;18.45;15.80;;;;;;;20.44;76.68;98870.75;5093977;28;20059;-51
2021/07/29 02:16:26;;;;;;;20.15;15.40;;;;;;;20.50;76.74;98870.75;5093859;28;20479;-51
2021/07/29 02:18:52;;;;;;;18.95;15.75;;;;;;;20.50;76.69;98876.19;5094522;28;20383;-48
2021/07/29 02:21:17;;;;;;;19.45;15.68;;;;;;;20.53;76.99;98882.25;5076515;28;20032;-49
2021/07/29 02:23:45;;;;;;;19.98;15.80;;;;;;;20.54;77.08;98876.56;5093927;28;20028;-49
2021/07/29 02:26:10;;;;;;;18.67;14.60;;;;;;;20.57;77.10;98867.16;5093778;28;20089;-48
2021/07/29 02:28:36;;;;;;;18.52;15.73;;;;;;;20.61;76.89;98868.41;5094012;28;20120;-49
2021/07/29 02:31:01;;;;;;;16.42;14.45;;;;;;;20.66;76.63;98865.88;5076187;28;20024;-53
2021/07/29 02:33:27;;;;;;;15.88;14.23;;;;;;;20.70;76.80;98869.84;5093586;28;20031;-55
2021/07/29 02:35:52;;;;;;;19.20;13.75;;;;;;;20.72;76.46;98873.19;5093550;28;20503;-51
2021/07/29 02:38:18;;;;;;;13.80;12.18;;;;;;;20.72;76.50;98866.91;5094311;28;20104;-52
2021/07/29 02:40:43;;;;;;;16.08;13.13;;;;;;;20.72;76.31;98867.75;5093922;28;20024;-51
2021/07/29 02:43:09;;;;;;;17.52;13.25;;;;;;;20.67;76.73;98870.28;5093589;28;20024;-53
2021/07/29 02:45:34;;;;;;;12.85;11.32;;;;;;;20.68;76.38;98876.56;5093500;28;20050;-49
2021/07/29 02:48:00;;;;;;;13.05;11.25;;;;;;;20.70;76.76;98875.28;5093804;28;20054;-49
2021/07/29 02:50:25;;;;;;;12.38;11.18;;;;;;;20.72;76.59;98877.81;5093456;28;20028;-47
2021/07/29 02:52:51;;;;;;;12.60;11.27;;;;;;;20.69;76.50;98883.66;5093467;28;20024;-58
2021/07/29 02:55:16;;;;;;;13.18;10.98;;;;;;;20.66;76.78;98884.91;5093169;28;20086;-50
2021/07/29 02:57:42;;;;;;;12.85;11.30;;;;;;;20.73;75.95;98890.34;5092923;28;20048;-49
2021/07/29 03:00:08;;;;;;;11.57;9.73;;;;;;;20.70;76.02;98883.44;5093202;28;20030;-47
2021/07/29 03:02:34;;;;;;;10.43;9.43;;;;;;;20.68;76.20;98890.97;5092874;28;20468;-50
2021/07/29 03:04:59;;;;;;;10.57;8.95;;;;;;;20.68;76.62;98888.25;5092725;28;20133;-51
2021/07/29 03:07:26;;;;;;;9.65;8.65;;;;;;;20.66;76.16;98898.53;5092486;28;20030;-49
2021/07/29 03:09:53;;;;;;;11.10;9.02;;;;;;;20.57;75.62;98881.59;5092912;28;20024;-52
2021/07/29 03:12:18;;;;;;;10.82;8.57;;;;;;;20.60;75.68;98893.94;5092853;28;20024;-51
2021/07/29 03:14:46;;;;;;;10.15;8.50;;;;;;;20.61;75.80;98895.59;5091737;28;20086;-46
2021/07/29 03:17:11;;;;;;;9.10;8.15;;;;;;;20.59;76.05;98900.44;5092382;28;20044;-53
2021/07/29 03:19:37;;;;;;;11.98;8.88;;;;;;;20.49;76.13;98879.09;5092668;28;20035;-54
2021/07/29 03:22:03;;;;;;;11.05;8.85;;;;;;;20.62;76.01;98905.44;5092378;28;20111;-52
2021/07/29 03:24:28;;;;;;;9.52;8.52;;;;;;;20.62;76.15;98910.88;5092866;28;20031;-54
2021/07/29 03:26:54;;;;;;;9.57;8.55;;;;;;;20.62;75.61;98910.88;5092279;28;20192;-48
2021/07/29 03:29:19;;;;;;;9.70;8.27;;;;;;;20.62;75.52;98916.31;5092745;28;20039;-48
2021/07/29 03:31:45;;;;;;;9.80;8.30;;;;;;;20.45;75.74;98895.00;5092531;28;20035;-52
2021/07/29 03:34:11;;;;;;;10.52;8.93;;;;;;;20.59;75.67;98930.34;5074041;28;20028;-48
2021/07/29 03:36:36;;;;;;;12.70;9.15;;;;;;;20.57;76.24;98922.38;5091918;28;20042;-51
2021/07/29 03:39:05;;;;;;;10.65;9.23;;;;;;;20.59;75.96;98922.19;5092372;28;20078;-50
2021/07/29 03:41:31;;;;;;;10.27;9.18;;;;;;;20.57;76.12;98919.66;5092093;28;20539;-51
2021/07/29 03:43:56;;;;;;;11.73;9.80;;;;;;;20.56;75.86;98928.03;5091953;28;20191;-55
2021/07/29 03:46:21;;;;;;;10.52;9.40;;;;;;;20.56;75.76;98922.59;5092958;28;20032;-49
2021/07/29 03:48:47;;;;;;;10.93;9.18;;;;;;;20.57;75.85;98927.81;5074265;28;20040;-48
2021/07/29 03:51:15;;;;;;;10.18;9.13;;;;;;;20.58;75.74;98925.94;5091717;28;20023;-51
2021/07/29 03:53:41;;;;;;;11.68;9.40;;;;;;;20.59;76.08;98928.44;5091604;28;20482;-52
2021/07/29 03:56:09;;;;;;;10.68;9.25;;;;;;;20.65;75.67;98932.19;5092110;28;20135;-47
2021/07/29 03:58:36;;;;;;;9.50;8.50;;;;;;;20.55;75.69;98927.19;5091910;28;20031;-47
2021/07/29 04:01:01;;;;;;;10.60;9.50;;;;;;;20.49;75.45;98928.03;5091522;28;20032;-47
2021/07/29 04:03:26;;;;;;;10.70;9.48;;;;;;;20.46;75.97;98923.84;5073723;28;20544;-50
2021/07/29 04:05:52;;;;;;;10.75;9.65;;;;;;;20.47;76.13;98922.81;5092585;28;20032;-49
2021/07/29 04:08:17;;;;;;;12.98;9.32;;;;;;;20.51;75.94;98932.25;5091446;28;20032;-51
2021/07/29 04:10:43;;;;;;;12.15;10.05;;;;;;;20.54;76.32;98921.97;5090760;28;20036;-52
2021/07/29 04:13:08;;;;;;;13.20;10.57;;;;;;;20.45;75.65;98903.16;5091319;28;20032;-48
2021/07/29 04:15:34;;;;;;;12.88;10.10;;;;;;;20.55;75.67;98926.38;5091829;28;20048;-49
2021/07/29 04:17:59;;;;;;;12.88;10.32;;;;;;;20.55;75.79;98920.94;5091832;28;20044;-46
2021/07/29 04:20:25;;;;;;;13.68;10.43;;;;;;;20.56;74.90;98928.88;5091473;28;20115;-48
2021/07/29 04:22:50;;;;;;;12.63;10.57;;;;;;;20.57;75.21;98925.09;5091471;28;20024;-49
2021/07/29 04:25:16;;;;;;;13.50;10.88;;;;;;;20.58;74.83;98925.94;5091739;28;20031;-54
2021/07/29 04:27:41;;;;;;;14.40;11.15;;;;;;;20.57;74.76;98919.66;5091518;28;20024;-52
2021/07/29 04:30:07;;;;;;;14.32;11.35;;;;;;;20.58;74.63;98915.88;5091255;28;20527;-49
2021/07/29 04:32:35;;;;;;;14.32;11.10;;;;;;;20.64;74.66;98927.81;5091320;28;20024;-49
2021/07/29 04:35:02;;;;;;;13.95;10.52;;;;;;;20.74;74.40;98930.09;5091341;28;20028;-49
2021/07/29 04:37:29;;;;;;;13.55;9.98;;;;;;;20.84;73.91;98922.34;5091102;28;20118;-49
2021/07/29 04:39:54;;;;;;;12.63;9.68;;;;;;;20.98;73.69;98911.44;5091524;28;20107;-51
2021/07/29 04:42:20;;;;;;;11.13;9.55;;;;;;;21.09;72.86;98908.03;5073056;28;20044;-51
2021/07/29 04:44:45;;;;;;;10.00;8.95;;;;;;;21.23;72.33;98912.38;5091411;28;20102;-52
2021/07/29 04:47:15;;;;;;;10.40;8.93;;;;;;;21.42;71.46;98906.22;5091163;28;20074;-49
2021/07/29 04:49:40;;;;;;;10.13;8.75;;;;;;;21.62;70.18;98908.84;5090677;28;20085;-51
2021/07/29 04:52:06;;;;;;;10.13;8.32;;;;;;;21.87;69.96;98917.06;5090443;28;20028;-51
2021/07/29 04:54:32;;;;;;;9.20;8.30;;;;;;;22.15;68.21;98913.09;5091201;28;20031;-55
2021/07/29 04:56:57;;;;;;;9.55;8.55;;;;;;;22.35;67.90;98906.63;5090365;28;20472;-51
2021/07/29 04:59:23;;;;;;;9.15;8.25;;;;;;;22.51;67.05;98911.56;5090519;28;20040;-48
2021/07/29 05:01:51;;;;;;;8.77;7.88;;;;;;;22.50;66.85;98893.53;5090944;28;20028;-48
2021/07/29 05:04:16;;;;;;;9.45;8.45;;;;;;;22.71;66.38;98926.03;5056132;28;20024;-49
2021/07/29 05:06:42;;;;;;;9.20;8.30;;;;;;;22.76;65.99;98924.31;5090884;28;20032;-47
2021/07/29 05:09:09;;;;;;;9.40;8.50;;;;;;;22.77;66.19;98923.25;5072304;28;20074;-47
2021/07/29 05:11:35;;;;;;;8.77;7.97;;;;;;;22.91;66.05;98914.94;5090371;28;20031;-47
2021/07/29 05:14:01;;;;;;;9.38;8.43;;;;;;;23.21;64.02;98925.06;5072333;28;20035;-48
2021/07/29 05:16:27;;;;;;;8.82;8.02;;;;;;;23.58;63.66;98935.13;5090543;28;20048;-52
2021/07/29 05:18:52;;;;;;;9.35;8.45;;;;;;;23.86;62.66;98931.75;5072675;28;20036;-49
2021/07/29 05:21:18;;;;;;;8.85;8.05;;;;;;;23.89;61.65;98942.25;5090335;28;20020;-54
2021/07/29 05:23:44;;;;;;;10.15;9.15;;;;;;;23.63;61.88;98927.91;5090552;28;20081;-52
2021/07/29 05:26:17;;;;;;;9.35;8.38;;;;;;;23.57;63.25;98938.94;5090718;28;20459;-50
2021/07/29 05:28:43;;;;;;;11.35;8.70;;;;;;;23.34;63.03;98941.31;5090316;28;20478;-52
2021/07/29 05:31:12;;;;;;;9.93;8.93;;;;;;;23.19;64.08;98938.94;5090460;28;20371;-54
2021/07/29 05:33:37;;;;;;;9.77;8.77;;;;;;;22.87;63.65;98913.69;5090359;28;20475;-51
2021/07/29 05:36:04;;;;;;;9.27;8.25;;;;;;;22.87;63.89;98944.56;5090463;28;20127;-53
2021/07/29 05:38:30;;;;;;;9.30;8.40;;;;;;;22.61;64.36;98919.22;5076149;28;20537;-52
2021/07/29 05:40:58;;;;;;;9.90;9.00;;;;;;;22.73;64.67;98934.84;5094526;28;20118;-54
2021/07/29 05:43:25;;;;;;;9.40;8.50;;;;;;;22.81;64.41;98942.75;5094650;28;20032;-48
2021/07/29 05:45:51;;;;;;;9.88;8.88;;;;;;;22.94;63.72;98937.13;5076206;28;20961;-56
2021/07/29 05:48:16;;;;;;;9.93;8.93;;;;;;;23.12;63.00;98935.47;5094037;28;20036;-54
2021/07/29 05:50:42;;;;;;;9.32;8.43;;;;;;;23.34;62.00;98916.72;5094713;28;20024;-53
2021/07/29 05:53:07;;;;;;;8.65;7.85;;;;;;;24.11;59.87;98932.69;5094478;28;20047;-50
2021/07/29 05:55:34;;;;;;;10.30;7.78;;;;;;;24.91;57.25;98925.00;5094429;28;20539;-52
2021/07/29 05:58:00;;;;;;;8.18;7.47;;;;;;;25.18;55.94;98922.56;5094208;28;20027;-49
2021/07/29 06:00:26;;;;;;;9.65;7.85;;;;;;;25.25;54.85;98925.16;5094597;28;20028;-50
2021/07/29 06:02:51;;;;;;;8.82;7.68;;;;;;;25.17;55.74;98928.28;5094524;28;20862;-52
2021/07/29 06:05:17;;;;;;;8.88;8.00;;;;;;;25.16;55.83;98927.44;5093723;28;20469;-51
2021/07/29 06:07:42;;;;;;;9.27;8.02;;;;;;;25.10;56.38;98903.78;5093834;28;20032;-48
2021/07/29 06:10:10;;;;;;;10.13;8.95;;;;;;;25.10;56.69;98928.41;5094260;28;20032;-50
2021/07/29 06:12:35;;;;;;;10.68;9.57;;;;;;;24.89;56.97;98929.91;5094203;28;20062;-50
2021/07/29 06:15:01;;;;;;;10.35;9.38;;;;;;;24.64;57.48;98941.91;5089142;28;20051;-48
2021/07/29 06:17:29;;;;;;;11.93;9.10;;;;;;;24.42;58.25;98937.03;5091485;28;20040;-48
2021/07/29 06:19:55;;;;;;;10.95;9.32;;;;;;;24.27;57.82;98933.91;5091951;28;20020;-51
2021/07/29 06:22:21;;;;;;;10.20;8.60;;;;;;;24.27;57.81;98944.84;5091762;28;20032;-51
2021/07/29 06:24:46;;;;;;;9.85;8.88;;;;;;;24.23;58.41;98942.59;5091484;28;20038;-51
2021/07/29 06:27:11;;;;;;;9.07;8.25;;;;;;;24.20;58.25;98948.53;5073263;28;20536;-52
2021/07/29 06:29:37;;;;;;;9.98;8.20;;;;;;;24.01;58.40;98933.25;5092068;28;20111;-49
2021/07/29 06:32:03;;;;;;;12.60;8.48;;;;;;;24.05;58.99;98959.91;5092412;28;20024;-52
2021/07/29 06:34:29;;;;;;;8.43;7.53;;;;;;;24.15;58.48;98955.75;5074805;28;20046;-50
2021/07/29 06:36:54;;;;;;;10.00;7.45;;;;;;;24.43;57.29;98948.78;5093300;28;20032;-52
2021/07/29 06:39:20;;;;;;;8.27;7.47;;;;;;;24.67;56.64;98952.38;5093900;28;20032;-48
2021/07/29 06:41:45;;;;;;;9.50;7.78;;;;;;;24.92;55.42;98948.59;5093612;28;20024;-49
2021/07/29 06:44:11;;;;;;;8.40;7.10;;;;;;;25.24;55.00;98961.84;5093167;28;20028;-52
2021/07/29 06:46:37;;;;;;;7.65;6.95;;;;;;;25.33;53.87;98951.34;5092967;28;20063;-48
2021/07/29 06:49:07;;;;;;;8.07;7.28;;;;;;;25.17;54.15;98961.97;5092172;28;20097;-50
2021/07/29 06:51:35;;;;;;;8.75;6.85;;;;;;;24.91;55.13;98957.88;5093134;28;20028;-51
2021/07/29 06:54:04;;;;;;;8.50;7.60;;;;;;;24.48;55.92;98955.22;5093013;28;20063;-48
2021/07/29 06:56:30;;;;;;;7.20;6.60;;;;;;;24.22;57.08;98965.53;5092898;28;20039;-47
2021/07/29 06:58:55;;;;;;;8.20;7.38;;;;;;;24.03;57.24;98951.13;5092840;28;20390;-53
2021/07/29 07:01:21;;;;;;;8.88;7.32;;;;;;;23.91;57.78;98948.31;5076006;28;20040;-58
2021/07/29 07:03:48;;;;;;;9.65;7.75;;;;;;;23.93;57.78;98942.59;5061460;28;20028;-51
2021/07/29 07:06:13;;;;;;;8.63;7.82;;;;;;;24.02;57.13;98949.44;5071044;28;20099;-55
2021/07/29 07:08:39;;;;;;;8.75;7.85;;;;;;;24.23;57.30;98947.22;5090778;28;20113;-53
2021/07/29 07:11:06;;;;;;;7.38;6.68;;;;;;;24.58;56.19;98942.84;5092488;28;20035;-51
2021/07/29 07:13:32;;;;;;;8.25;7.47;;;;;;;25.17;54.14;98944.72;5092532;28;20054;-48
2021/07/29 07:15:57;;;;;;;7.95;7.15;;;;;;;26.36;51.44;98936.81;5068933;28;20399;-52
2021/07/29 07:18:23;;;;;;;7.85;6.55;;;;;;;27.53;48.16;98937.06;5078226;28;20051;-53
2021/07/29 07:20:48;;;;;;;7.97;7.05;;;;;;;27.88;46.57;98935.75;5061057;28;20422;-50
2021/07/29 07:23:14;;;;;;;7.50;6.30;;;;;;;27.89;46.35;98928.34;5070352;28;20028;-52
2021/07/29 07:25:39;;;;;;;7.45;6.75;;;;;;;27.92;46.07;98931.41;5112647;28;20043;-49
2021/07/29 07:28:05;;;;;;;7.63;6.82;;;;;;;27.98;46.03;98936.97;5095639;28;20032;-52
2021/07/29 07:30:34;;;;;;;7.63;6.82;;;;;;;28.02;45.54;98946.34;5038893;28;20039;-54
2021/07/29 07:33:01;;;;;;;7.15;6.45;;;;;;;27.79;45.27;98931.84;5089023;28;20032;-52
2021/07/29 07:35:27;;;;;;;7.22;6.53;;;;;;;27.67;46.12;98947.66;5086679;28;20431;-49
2021/07/29 07:37:54;;;;;;;8.73;6.60;;;;;;;27.33;47.16;98938.47;5091848;28;20032;-50
2021/07/29 07:40:19;;;;;;;7.53;6.82;;;;;;;27.08;47.74;98948.03;5092333;28;20078;-52
2021/07/29 07:42:45;;;;;;;6.82;6.22;;;;;;;26.91;48.61;98950.00;5091923;28;20039;-51
2021/07/29 07:45:11;;;;;;;7.80;6.50;;;;;;;26.89;48.93;98941.19;5091898;28;20039;-49
2021/07/29 07:47:37;;;;;;;9.13;7.15;;;;;;;27.08;48.37;98953.53;5092710;28;20459;-50
2021/07/29 07:50:03;;;;;;;14.25;7.07;;;;;;;27.19;48.34;98938.03;5091856;28;20454;-53
2021/07/29 07:52:29;;;;;;;8.43;6.55;;;;;;;27.42;48.00;98949.84;5089915;28;20060;-53
2021/07/29 07:54:54;;;;;;;12.13;6.78;;;;;;;27.51;47.67;98953.81;5090463;28;20020;-53
2021/07/29 07:57:20;;;;;;;8.75;6.50;;;;;;;27.63;46.61;98930.84;5090190;28;20106;-53
2021/07/29 07:59:45;;;;;;;7.28;6.47;;;;;;;27.97;45.62;98958.13;5090599;28;20363;-50
2021/07/29 08:02:11;;;;;;;6.72;6.00;;;;;;;28.07;45.98;98968.41;5091722;28;20036;-52
2021/07/29 08:04:36;;;;;;;8.23;6.32;;;;;;;27.99;45.45;98960.63;5092108;28;20645;-56
2021/07/29 08:07:02;;;;;;;6.93;6.22;;;;;;;27.81;46.37;98957.16;5091972;28;20032;-53
2021/07/29 08:09:28;;;;;;;6.63;5.95;;;;;;;27.73;46.82;98954.84;5091958;28;20058;-48
2021/07/29 08:11:53;;;;;;;8.25;5.63;;;;;;;27.96;45.52;98959.22;5073824;28;20154;-52
2021/07/29 08:14:19;;;;;;;6.00;5.38;;;;;;;28.96;43.13;98948.75;5092206;28;20065;-52
2021/07/29 08:16:44;;;;;;;7.72;5.47;;;;;;;30.84;39.60;98939.69;5092398;28;20044;-54
2021/07/29 08:19:10;;;;;;;5.25;4.60;;;;;;;33.14;34.48;98942.28;5091744;28;20097;-58
2021/07/29 08:21:36;;;;;;;5.13;4.28;;;;;;;34.71;31.16;98942.44;5091496;28;20365;-49
2021/07/29 08:24:02;;;;;;;4.72;3.70;;;;;;;35.14;29.93;98957.22;5091671;28;20024;-52
2021/07/29 08:26:28;;;;;;;4.47;4.07;;;;;;;34.95;30.08;98947.00;5091599;28;20028;-51
2021/07/29 08:28:53;;;;;;;4.38;3.88;;;;;;;34.42;30.89;98957.38;5091343;28;20034;-49
2021/07/29 08:31:20;;;;;;;4.30;3.90;;;;;;;33.84;32.46;98964.97;5072389;28;20074;-50
2021/07/29 08:33:46;;;;;;;7.30;4.53;;;;;;;33.43;32.20;98948.88;5073049;28;20040;-55
2021/07/29 08:36:16;;;;;;;6.30;4.50;;;;;;;33.39;33.27;98947.81;5091187;28;20020;-54
2021/07/29 08:38:44;;;;;;;4.68;3.47;;;;;;;33.14;32.35;98947.81;5091198;28;20114;-51
2021/07/29 08:41:10;;;;;;;4.43;4.03;;;;;;;32.94;32.59;98954.44;5091110;28;20380;-49
2021/07/29 08:43:36;;;;;;;6.15;4.00;;;;;;;32.75;32.02;98957.13;5091079;28;20032;-52
2021/07/29 08:46:04;;;;;;;3.63;3.13;;;;;;;32.58;32.42;98949.25;5091419;28;20036;-53
2021/07/29 08:48:32;;;;;;;3.92;3.63;;;;;;;32.46;33.42;98964.31;5091024;28;20028;-52
2021/07/29 08:50:58;;;;;;;5.45;3.78;;;;;;;32.28;34.06;98959.44;5090863;28;20135;-52
2021/07/29 08:53:24;;;;;;;4.40;3.75;;;;;;;31.99;33.51;98952.75;5090947;28;20028;-53
2021/07/29 08:55:51;;;;;;;4.15;3.75;;;;;;;31.71;34.52;98957.91;5090784;28;20031;-52
2021/07/29 08:58:18;;;;;;;5.55;3.63;;;;;;;31.28;35.38;98954.78;5090848;28;20043;-52
2021/07/29 09:01:04;;;;;;;5.13;4.22;;;;;;;30.97;36.79;98961.22;5091224;28;20024;-49
2021/07/29 09:03:30;;;;;;;4.47;3.50;;;;;;;30.45;36.92;98958.53;5090962;28;20020;-49
2021/07/29 09:06:07;;;;;;;3.75;3.40;;;;;;;30.70;37.45;98961.53;5090564;28;20032;-50
2021/07/29 09:08:52;;;;;;;4.57;3.53;;;;;;;31.00;36.89;98960.66;5090621;28;20510;-53
2021/07/29 09:11:34;;;;;;;6.25;3.70;;;;;;;30.97;36.77;98958.47;5090109;28;20536;-48
2021/07/29 09:14:11;;;;;;;3.60;3.20;;;;;;;30.82;36.48;98952.97;5090439;28;20036;-54
2021/07/29 09:16:56;;;;;;;4.32;3.35;;;;;;;30.79;36.84;98963.47;5090713;28;20048;-54
2021/07/29 09:19:41;;;;;;;4.32;3.08;;;;;;;30.71;37.02;98957.69;5090780;28;20105;-52
2021/07/29 09:22:25;;;;;;;3.10;2.90;;;;;;;30.53;36.61;98953.53;5090200;28;20063;-54
2021/07/29 09:25:08;;;;;;;3.92;3.50;;;;;;;30.53;37.23;98964.59;5090759;28;20051;-48
2021/07/29 09:27:37;;;;;;;4.32;2.90;;;;;;;30.48;36.45;98960.72;5090411;28;20082;-49
2021/07/29 09:30:11;;;;;;;3.17;2.90;;;;;;;30.77;36.18;98954.63;5090275;28;20043;-53
2021/07/29 09:32:56;;;;;;;4.87;3.10;;;;;;;31.12;35.70;98956.75;5091132;28;20032;-54
2021/07/29 09:35:28;;;;;;;3.22;2.92;;;;;;;31.16;35.61;98955.09;5090351;28;20673;-52
2021/07/29 09:37:54;;;;;;;3.50;3.17;;;;;;;31.08;34.86;98951.78;5090349;28;20123;-51
2021/07/29 09:40:19;;;;;;;3.15;2.85;;;;;;;31.11;34.47;98944.03;5090431;28;20111;-52
2021/07/29 09:43:07;;;;;;;4.53;3.00;;;;;;;31.44;35.29;98936.19;5090858;28;20107;-56
2021/07/29 09:45:32;;;;;;;2.90;2.70;;;;;;;31.29;34.83;98935.13;5090212;28;20363;-55
2021/07/29 09:47:58;;;;;;;4.60;3.38;;;;;;;31.52;34.53;98946.66;5089350;28;20020;-47
2021/07/29 09:50:25;;;;;;;5.10;3.20;;;;;;;31.72;34.15;98942.09;5084592;28;20094;-50
2021/07/29 09:52:52;;;;;;;3.47;3.17;;;;;;;31.83;33.78;98953.97;5082641;28;20090;-51
2021/07/29 09:55:19;;;;;;;4.43;3.60;;;;;;;31.77;34.08;98947.63;5089951;28;20064;-52
2021/07/29 09:57:45;;;;;;;4.00;3.70;;;;;;;31.59;33.86;98943.56;5089639;28;20087;-57
2021/07/29 10:00:11;;;;;;;4.07;3.78;;;;;;;31.27;34.42;98945.66;5089824;28;20468;-54
2021/07/29 10:02:36;;;;;;;7.03;3.45;;;;;;;30.91;35.99;98934.72;5089461;28;20476;-54
2021/07/29 10:05:03;;;;;;;4.53;4.05;;;;;;;30.61;36.58;98945.56;5089951;28;20035;-56
2021/07/29 10:07:32;;;;;;;4.07;3.78;;;;;;;30.51;36.90;98951.88;5090134;28;20024;-55
2021/07/29 10:09:59;;;;;;;4.95;4.03;;;;;;;30.55;37.35;98952.16;5089957;28;20391;-56
2021/07/29 10:12:29;;;;;;;4.65;4.25;;;;;;;30.55;36.47;98926.47;5089766;28;20447;-53
2021/07/29 10:14:55;;;;;;;6.03;4.30;;;;;;;30.73;36.57;98944.41;5089723;28;20024;-50
2021/07/29 10:17:36;;;;;;;5.00;4.60;;;;;;;30.98;36.67;98939.91;5089628;28;20091;-51
2021/07/29 10:20:10;;;;;;;5.45;4.47;;;;;;;30.72;37.04;98954.66;5090111;28;20066;-50
2021/07/29 10:22:36;;;;;;;5.47;4.53;;;;;;;30.40;37.54;98941.13;5090701;28;20387;-57
2021/07/29 10:25:01;;;;;;;4.93;4.50;;;;;;;30.25;37.66;98941.97;5093284;28;20039;-52
2021/07/29 10:27:27;;;;;;;5.38;4.80;;;;;;;30.25;38.22;98948.28;5093134;28;20047;-54
2021/07/29 10:29:52;;;;;;;5.78;5.18;;;;;;;30.30;37.69;98937.28;5093877;28;20081;-52
2021/07/29 10:32:47;;;;;;;5.50;5.00;;;;;;;30.62;37.83;98949.13;5093890;28;20422;-57
2021/07/29 10:35:31;;;;;;;6.50;5.32;;;;;;;30.70;37.41;98954.09;5093455;28;20049;-53
2021/07/29 10:37:58;;;;;;;5.78;5.32;;;;;;;30.45;37.59;98966.81;5093030;28;20471;-52
2021/07/29 10:40:33;;;;;;;6.78;5.68;;;;;;;30.61;37.69;98958.53;5093771;28;20036;-52
2021/07/29 10:43:40;;;;;;;6.00;5.03;;;;;;;30.95;37.49;98955.16;5093627;28;20035;-51
2021/07/29 10:46:07;;;;;;;6.15;4.88;;;;;;;30.82;37.01;98941.91;5010715;28;20054;-55
2021/07/29 10:48:39;;;;;;;7.65;5.40;;;;;;;31.02;37.04;98941.84;5082600;28;20048;-54
2021/07/29 10:51:14;;;;;;;6.60;6.03;;;;;;;31.00;37.07;98943.25;5092614;28;20475;-55
2021/07/29 10:53:48;;;;;;;6.55;5.53;;;;;;;30.90;37.64;98955.16;5092885;28;20051;-52
2021/07/29 10:56:19;;;;;;;6.65;6.05;;;;;;;30.90;37.43;98960.69;5092924;28;20032;-50
2021/07/29 10:58:49;;;;;;;6.32;5.72;;;;;;;31.00;36.94;98949.59;5093399;28;20032;-54
2021/07/29 11:01:16;;;;;;;8.00;5.95;;;;;;;30.86;36.79;98943.00;5092982;28;20383;-55
2021/07/29 11:04:01;;;;;;;9.35;6.55;;;;;;;30.77;37.38;98934.47;5077626;28;20109;-49
2021/07/29 11:06:36;;;;;;;6.38;5.78;;;;;;;30.69;37.62;98944.16;5092141;28;20043;-53
2021/07/29 11:09:30;;;;;;;6.18;5.68;;;;;;;30.92;37.51;98947.44;5085512;28;20024;-52
2021/07/29 11:11:56;;;;;;;7.15;6.45;;;;;;;30.54;37.95;98936.69;5071430;28;20075;-52
2021/07/29 11:14:25;;;;;;;7.57;6.18;;;;;;;30.43;38.08;98946.94;5077789;28;20100;-53
2021/07/29 11:16:51;;;;;;;5.82;5.32;;;;;;;30.22;38.31;98941.41;5092829;28;20052;-54
2021/07/29 11:19:18;;;;;;;7.05;6.35;;;;;;;30.07;38.88;98938.63;5093024;28;20032;-52
2021/07/29 11:21:43;;;;;;;7.10;6.50;;;;;;;29.87;39.06;98940.25;5092863;28;20027;-51
2021/07/29 11:24:25;;;;;;;7.78;7.03;;;;;;;30.04;39.00;98947.47;5092344;28;20340;-50
2021/07/29 11:26:50;;;;;;;8.95;6.43;;;;;;;30.04;38.99;98941.94;5083930;28;20533;-61
2021/07/29 11:29:16;;;;;;;7.63;6.93;;;;;;;30.16;39.15;98945.28;5086032;28;20108;-52